Time;durP1;ratioP1;P1;durP2;ratioP2;P2;SDS_P1;SDS_P2;PMS_P1;PMS_P2;Temp;Humidity;BMP_temperature;BMP_pressure;BME280_temperature;BME280_humidity;BME280_pressure;Samples;Min_cycle;Max_cycle;Signal;HPM_P1;HPM_P2
2023/12/24 00:03:39;;;;;;;3.22;1.77;;;;;;;;;;10029940;28;20046;-82
2023/12/24 00:08:31;;;;;;;1.83;1.42;;;;;;;;;;10028767;28;20045;-82
2023/12/24 00:13:24;;;;;;;1.55;1.30;;;;;;;;;;10027978;28;20046;-82
2023/12/24 00:18:17;;;;;;;0.85;0.80;;;;;;;;;;10029381;28;20089;-82
2023/12/24 00:23:10;;;;;;;0.88;0.75;;;;;;;;;;10029804;28;20045;-82
2023/12/24 00:28:02;;;;;;;1.85;0.90;;;;;;;;;;10027021;28;20052;-82
2023/12/24 00:32:54;;;;;;;3.45;1.02;;;;;;;;;;10028119;28;20385;-82
2023/12/24 00:37:47;;;;;;;2.50;2.13;;;;;;;;;;9993038;28;20069;-82
2023/12/24 00:42:39;;;;;;;2.80;1.95;;;;;;;;;;9990833;28;20108;-82
2023/12/24 00:47:31;;;;;;;2.55;1.70;;;;;;;;;;9989748;28;20350;-82
2023/12/24 00:52:23;;;;;;;2.08;1.63;;;;;;;;;;9990583;28;20109;-82
2023/12/24 00:57:15;;;;;;;6.10;1.30;;;;;;;;;;9990410;28;20097;-82
2023/12/24 01:02:07;;;;;;;0.77;0.77;;;;;;;;;;9989643;28;20066;-82
2023/12/24 01:06:59;;;;;;;0.70;0.70;;;;;;;;;;9990598;28;20038;-80
2023/12/24 01:11:53;;;;;;;1.80;1.40;;;;;;;;;;9989264;28;20043;-82
2023/12/24 01:16:44;;;;;;;3.25;1.73;;;;;;;;;;9988553;28;20042;-82
2023/12/24 01:21:36;;;;;;;2.85;1.52;;;;;;;;;;9992842;28;20038;-82
2023/12/24 01:26:28;;;;;;;2.55;1.75;;;;;;;;;;10004436;28;20049;-82
2023/12/24 01:31:20;;;;;;;3.45;1.17;;;;;;;;;;9991731;28;20046;-82
2023/12/24 01:36:12;;;;;;;1.50;0.80;;;;;;;;;;10003746;28;20445;-82
2023/12/24 01:41:04;;;;;;;0.57;0.57;;;;;;;;;;9988749;28;20085;-81
2023/12/24 01:45:56;;;;;;;0.82;0.60;;;;;;;;;;10003993;28;20047;-81
2023/12/24 01:50:48;;;;;;;0.70;0.70;;;;;;;;;;9986821;28;20077;-82
2023/12/24 01:55:41;;;;;;;1.85;0.80;;;;;;;;;;9987842;28;20118;-79
2023/12/24 02:00:33;;;;;;;0.82;0.80;;;;;;;;;;9988639;28;20395;-82
2023/12/24 02:05:26;;;;;;;0.60;0.60;;;;;;;;;;10012688;28;20040;-81
2023/12/24 02:10:19;;;;;;;1.38;0.80;;;;;;;;;;9987138;28;20054;-81
2023/12/24 02:15:11;;;;;;;0.85;0.63;;;;;;;;;;9986218;28;20343;-81
2023/12/24 02:20:03;;;;;;;0.70;0.68;;;;;;;;;;10007436;28;20174;-80
2023/12/24 02:24:56;;;;;;;0.68;0.55;;;;;;;;;;9989291;28;20428;-81
2023/12/24 02:29:50;;;;;;;0.60;0.60;;;;;;;;;;9996224;28;20050;-81
2023/12/24 02:34:46;;;;;;;1.10;0.70;;;;;;;;;;10009780;28;20049;-81
2023/12/24 02:39:38;;;;;;;0.70;0.70;;;;;;;;;;10009275;28;20122;-81
2023/12/24 02:44:30;;;;;;;0.50;0.50;;;;;;;;;;9994494;28;20429;-81
2023/12/24 02:49:22;;;;;;;1.55;0.57;;;;;;;;;;9996398;28;20045;-82
2023/12/24 02:54:14;;;;;;;0.60;0.60;;;;;;;;;;9999345;28;20038;-81
2023/12/24 02:59:06;;;;;;;4.35;1.60;;;;;;;;;;10010431;28;20057;-81
2023/12/24 03:03:59;;;;;;;0.50;0.50;;;;;;;;;;10024380;28;20061;-82
2023/12/24 03:08:51;;;;;;;2.78;0.68;;;;;;;;;;10002029;28;20345;-82
2023/12/24 03:13:43;;;;;;;0.60;0.57;;;;;;;;;;10008353;28;20146;-82
2023/12/24 03:18:34;;;;;;;0.60;0.60;;;;;;;;;;10024007;28;20053;-82
2023/12/24 03:23:26;;;;;;;1.95;0.60;;;;;;;;;;10004996;28;20069;-79
2023/12/24 03:28:19;;;;;;;2.40;0.60;;;;;;;;;;9994083;28;20181;-82
2023/12/24 03:33:11;;;;;;;0.70;0.70;;;;;;;;;;9991859;28;20065;-82
2023/12/24 03:38:03;;;;;;;0.98;0.77;;;;;;;;;;10002225;28;20050;-82
2023/12/24 03:42:55;;;;;;;1.13;0.60;;;;;;;;;;9992773;28;20047;-81
2023/12/24 03:47:47;;;;;;;2.50;0.80;;;;;;;;;;9992768;28;20121;-81
2023/12/24 03:52:39;;;;;;;2.10;0.90;;;;;;;;;;9993229;28;20089;-82
2023/12/24 03:57:31;;;;;;;2.05;0.60;;;;;;;;;;9989965;28;20229;-82
2023/12/24 04:02:24;;;;;;;0.85;0.65;;;;;;;;;;9994721;28;20085;-81
2023/12/24 04:07:16;;;;;;;1.75;0.80;;;;;;;;;;10008439;28;20042;-81
2023/12/24 04:12:09;;;;;;;1.48;0.80;;;;;;;;;;10007247;28;20039;-81
2023/12/24 04:17:02;;;;;;;2.22;0.80;;;;;;;;;;9991191;28;20382;-81
2023/12/24 04:21:54;;;;;;;2.25;0.70;;;;;;;;;;9991608;28;20038;-81
2023/12/24 04:26:45;;;;;;;1.35;0.80;;;;;;;;;;9989813;28;20057;-81
2023/12/24 04:31:39;;;;;;;0.95;0.82;;;;;;;;;;9989471;28;20077;-81
2023/12/24 04:36:34;;;;;;;1.13;1.02;;;;;;;;;;9999263;28;20042;-81
2023/12/24 04:41:29;;;;;;;2.55;1.02;;;;;;;;;;10012951;28;20042;-80
2023/12/24 04:46:21;;;;;;;6.90;2.90;;;;;;;;;;9989475;28;20038;-81
2023/12/24 04:51:15;;;;;;;4.35;2.50;;;;;;;;;;10003208;28;20105;-81
2023/12/24 04:56:08;;;;;;;6.35;3.28;;;;;;;;;;10005127;28;20057;-81
2023/12/24 05:01:02;;;;;;;6.82;3.90;;;;;;;;;;10006709;28;20073;-81
2023/12/24 05:05:56;;;;;;;7.18;4.57;;;;;;;;;;10004343;28;20045;-81
2023/12/24 05:10:48;;;;;;;6.57;4.70;;;;;;;;;;9992328;28;20061;-81
2023/12/24 05:15:40;;;;;;;7.90;4.82;;;;;;;;;;9989748;28;20373;-81
2023/12/24 05:20:31;;;;;;;9.00;4.85;;;;;;;;;;10005008;28;20552;-80
2023/12/24 05:25:23;;;;;;;13.00;5.30;;;;;;;;;;9988328;28;20429;-81
2023/12/24 05:30:15;;;;;;;10.40;4.13;;;;;;;;;;9988460;28;20042;-81
2023/12/24 05:35:07;;;;;;;7.88;4.70;;;;;;;;;;10004624;28;20050;-80
2023/12/24 05:39:59;;;;;;;8.52;4.53;;;;;;;;;;9988839;28;20050;-80
2023/12/24 05:44:51;;;;;;;9.48;4.80;;;;;;;;;;9997746;28;20043;-81
2023/12/24 05:49:43;;;;;;;26.67;23.63;;;;;;;;;;10023711;28;20193;-81
2023/12/24 05:54:35;;;;;;;7.07;4.82;;;;;;;;;;10025209;28;20042;-80
2023/12/24 05:59:27;;;;;;;11.93;10.00;;;;;;;;;;10025626;28;20052;-81
2023/12/24 06:04:19;;;;;;;15.20;11.50;;;;;;;;;;10025603;28;20042;-80
2023/12/24 06:09:10;;;;;;;15.98;7.65;;;;;;;;;;10024319;28;20535;-80
2023/12/24 06:14:02;;;;;;;10.32;4.15;;;;;;;;;;10026188;28;20128;-81
2023/12/24 06:18:54;;;;;;;4.63;3.08;;;;;;;;;;10025883;28;20050;-81
2023/12/24 06:23:47;;;;;;;5.82;3.72;;;;;;;;;;10032319;28;20129;-82
2023/12/24 06:28:39;;;;;;;8.88;4.63;;;;;;;;;;10016626;28;20128;-83
2023/12/24 06:33:30;;;;;;;8.57;4.07;;;;;;;;;;10019093;28;20141;-83
2023/12/24 06:38:22;;;;;;;5.70;3.35;;;;;;;;;;10024166;28;20056;-82
2023/12/24 06:43:14;;;;;;;5.25;3.47;;;;;;;;;;10025232;28;20060;-83
2023/12/24 06:48:06;;;;;;;8.07;3.50;;;;;;;;;;10024419;28;20410;-82
2023/12/24 06:52:58;;;;;;;7.07;4.10;;;;;;;;;;10024856;28;20042;-80
2023/12/24 06:57:52;;;;;;;8.95;3.83;;;;;;;;;;10015920;28;20136;-79
2023/12/24 07:02:44;;;;;;;5.63;2.70;;;;;;;;;;10024518;28;20052;-80
2023/12/24 07:07:36;;;;;;;9.82;6.38;;;;;;;;;;10023889;28;20048;-79
2023/12/24 07:12:29;;;;;;;5.43;3.42;;;;;;;;;;10025101;28;20040;-81
2023/12/24 07:17:21;;;;;;;4.78;3.63;;;;;;;;;;10031529;28;20041;-79
2023/12/24 07:22:16;;;;;;;22.80;8.65;;;;;;;;;;10032510;28;20138;-82
2023/12/24 07:27:08;;;;;;;30.15;13.88;;;;;;;;;;9997427;28;20560;-80
2023/12/24 07:31:59;;;;;;;5.53;3.17;;;;;;;;;;9995360;28;20038;-82
2023/12/24 07:36:52;;;;;;;27.67;16.52;;;;;;;;;;9992747;28;20126;-81
2023/12/24 07:41:44;;;;;;;124.43;82.57;;;;;;;;;;9991863;28;20054;-80
2023/12/24 07:46:38;;;;;;;12.50;8.93;;;;;;;;;;9993406;28;20137;-81
2023/12/24 07:51:30;;;;;;;9.57;5.30;;;;;;;;;;9995581;28;20137;-82
2023/12/24 07:56:21;;;;;;;5.93;3.47;;;;;;;;;;9992968;28;20100;-80
2023/12/24 08:01:13;;;;;;;4.47;2.83;;;;;;;;;;9996165;28;20137;-84
2023/12/24 08:06:06;;;;;;;9.40;2.78;;;;;;;;;;9991961;28;20043;-82
2023/12/24 08:10:59;;;;;;;6.07;3.63;;;;;;;;;;9989565;28;20046;-81
2023/12/24 08:16:04;;;;;;;5.50;3.50;;;;;;;;;;9991578;28;20133;-83
2023/12/24 08:20:56;;;;;;;11.27;8.82;;;;;;;;;;9989782;28;20038;-83
2023/12/24 08:25:48;;;;;;;13.63;10.18;;;;;;;;;;9993538;28;20124;-83
2023/12/24 08:30:40;;;;;;;14.15;7.32;;;;;;;;;;9990281;28;20058;-81
2023/12/24 08:35:33;;;;;;;7.20;4.03;;;;;;;;;;9991287;28;20470;-78
2023/12/24 08:40:27;;;;;;;8.00;5.07;;;;;;;;;;9994236;28;20106;-77
2023/12/24 08:45:19;;;;;;;8.85;4.60;;;;;;;;;;10021026;28;20126;-78
2023/12/24 08:50:11;;;;;;;7.15;3.88;;;;;;;;;;10017872;28;20046;-80
2023/12/24 08:55:03;;;;;;;16.08;10.63;;;;;;;;;;10021057;28;20435;-78
2023/12/24 08:59:55;;;;;;;12.20;4.82;;;;;;;;;;10022125;28;20046;-78
2023/12/24 09:04:47;;;;;;;11.90;4.00;;;;;;;;;;10018340;28;20053;-78
2023/12/24 09:09:39;;;;;;;8.77;5.13;;;;;;;;;;10016193;28;20073;-80
2023/12/24 09:14:31;;;;;;;13.35;5.22;;;;;;;;;;10023693;28;20033;-80
2023/12/24 09:19:23;;;;;;;23.08;6.13;;;;;;;;;;10025144;28;20050;-76
2023/12/24 09:24:15;;;;;;;9.35;4.30;;;;;;;;;;10026389;28;20461;-75
2023/12/24 09:29:07;;;;;;;12.57;4.35;;;;;;;;;;10025492;28;20106;-77
2023/12/24 09:33:59;;;;;;;11.00;5.07;;;;;;;;;;10024771;28;20124;-77
2023/12/24 09:38:51;;;;;;;10.75;4.35;;;;;;;;;;10019417;28;20042;-77
2023/12/24 09:43:43;;;;;;;15.65;5.63;;;;;;;;;;10023837;28;20050;-77
2023/12/24 09:48:35;;;;;;;8.40;4.32;;;;;;;;;;10026418;28;20073;-78
2023/12/24 09:53:27;;;;;;;10.68;4.97;;;;;;;;;;10021766;28;20049;-78
2023/12/24 09:58:19;;;;;;;8.48;4.47;;;;;;;;;;10023511;28;20058;-79
2023/12/24 10:03:11;;;;;;;7.20;4.00;;;;;;;;;;10024472;28;20138;-79
2023/12/24 10:08:03;;;;;;;5.85;2.97;;;;;;;;;;10023228;28;20433;-79
2023/12/24 10:13:05;;;;;;;6.38;3.20;;;;;;;;;;10029130;28;20057;-79
2023/12/24 10:18:14;;;;;;;9.65;5.30;;;;;;;;;;10023059;28;20052;-75
2023/12/24 10:23:07;;;;;;;8.15;3.30;;;;;;;;;;10010625;28;20136;-76
2023/12/24 10:28:06;;;;;;;6.97;3.63;;;;;;;;;;10022472;28;20045;-78
2023/12/24 10:33:17;;;;;;;9.95;4.30;;;;;;;;;;10023523;28;20042;-77
2023/12/24 10:38:15;;;;;;;5.38;3.55;;;;;;;;;;10020598;28;20042;-81
2023/12/24 10:43:07;;;;;;;17.70;5.80;;;;;;;;;;10006191;28;20470;-81
2023/12/24 10:47:59;;;;;;;10.45;3.42;;;;;;;;;;10024197;28;20381;-86
2023/12/24 10:52:52;;;;;;;5.88;3.70;;;;;;;;;;10029805;28;20046;-80
2023/12/24 10:57:54;;;;;;;8.45;4.22;;;;;;;;;;10030037;28;20136;-80
2023/12/24 11:02:49;;;;;;;7.72;4.25;;;;;;;;;;10029941;28;20473;-79
2023/12/24 11:07:41;;;;;;;9.02;3.20;;;;;;;;;;10031542;28;20512;-80
2023/12/24 11:12:34;;;;;;;10.10;5.45;;;;;;;;;;10030160;28;20045;-78
2023/12/24 11:17:41;;;;;;;14.02;4.65;;;;;;;;;;10029958;28;20141;-78
2023/12/24 11:22:33;;;;;;;12.32;4.95;;;;;;;;;;10016594;28;20050;-79
2023/12/24 11:27:52;;;;;;;11.57;4.80;;;;;;;;;;10016116;28;20077;-78
2023/12/24 11:32:44;;;;;;;11.27;5.43;;;;;;;;;;10029839;28;20057;-77
2023/12/24 11:37:39;;;;;;;11.00;5.55;;;;;;;;;;10028977;28;20358;-79
2023/12/24 11:42:42;;;;;;;13.85;5.30;;;;;;;;;;10021842;28;20042;-79
2023/12/24 11:47:37;;;;;;;12.25;6.00;;;;;;;;;;10018481;28;20496;-79
2023/12/24 11:52:29;;;;;;;13.55;5.80;;;;;;;;;;10028484;28;20073;-79
2023/12/24 11:57:24;;;;;;;8.80;5.53;;;;;;;;;;10026471;28;20205;-78
2023/12/24 12:02:16;;;;;;;10.30;5.28;;;;;;;;;;10028129;28;20277;-79
2023/12/24 12:07:08;;;;;;;14.63;6.35;;;;;;;;;;10025573;28;20046;-79
2023/12/24 12:12:00;;;;;;;9.43;5.13;;;;;;;;;;10027582;28;20499;-79
2023/12/24 12:16:52;;;;;;;11.75;4.90;;;;;;;;;;10026787;28;20081;-79
2023/12/24 12:21:44;;;;;;;10.57;4.90;;;;;;;;;;10024205;28;20624;-79
2023/12/24 12:26:38;;;;;;;8.27;4.63;;;;;;;;;;10026632;28;21065;-79
2023/12/24 12:31:30;;;;;;;10.48;3.97;;;;;;;;;;10026560;28;20076;-80
2023/12/24 12:36:22;;;;;;;8.75;4.32;;;;;;;;;;10026522;28;20046;-79
2023/12/24 12:41:14;;;;;;;7.45;4.00;;;;;;;;;;10025015;28;20077;-78
2023/12/24 12:46:05;;;;;;;6.65;3.38;;;;;;;;;;9998000;28;20121;-79
2023/12/24 12:50:57;;;;;;;12.18;4.40;;;;;;;;;;9993212;28;20145;-80
2023/12/24 12:55:49;;;;;;;9.75;3.85;;;;;;;;;;9995230;28;20182;-80
2023/12/24 13:00:41;;;;;;;8.05;3.88;;;;;;;;;;9993411;28;20371;-78
2023/12/24 13:05:34;;;;;;;16.67;4.38;;;;;;;;;;9988827;28;20049;-80
2023/12/24 13:10:31;;;;;;;9.60;4.25;;;;;;;;;;9989538;28;20039;-79
2023/12/24 13:15:24;;;;;;;8.35;3.75;;;;;;;;;;9988886;28;20099;-77
2023/12/24 13:20:16;;;;;;;9.85;4.00;;;;;;;;;;9992175;28;20124;-77
2023/12/24 13:25:08;;;;;;;9.20;4.57;;;;;;;;;;9991827;28;20046;-79
2023/12/24 13:30:00;;;;;;;10.95;3.88;;;;;;;;;;10009979;28;20125;-77
2023/12/24 13:34:52;;;;;;;8.18;4.30;;;;;;;;;;9989056;28;20062;-77
2023/12/24 13:39:44;;;;;;;8.45;3.85;;;;;;;;;;9989374;28;20054;-77
2023/12/24 13:44:36;;;;;;;7.40;3.83;;;;;;;;;;9987890;28;20057;-77
2023/12/24 13:49:29;;;;;;;13.55;5.20;;;;;;;;;;9997735;28;20046;-78
2023/12/24 13:54:23;;;;;;;10.38;4.65;;;;;;;;;;9991716;28;20097;-77
2023/12/24 13:59:15;;;;;;;30.17;15.98;;;;;;;;;;9986888;28;20061;-77
2023/12/24 14:04:07;;;;;;;15.85;7.85;;;;;;;;;;9986130;28;20473;-77
2023/12/24 14:08:59;;;;;;;9.38;4.53;;;;;;;;;;9991168;28;20131;-77
2023/12/24 14:13:51;;;;;;;8.15;4.40;;;;;;;;;;9986522;28;20450;-77
2023/12/24 14:18:43;;;;;;;15.02;5.28;;;;;;;;;;9992089;28;20109;-77
2023/12/24 14:23:35;;;;;;;10.07;4.60;;;;;;;;;;9990766;28;20414;-77
2023/12/24 14:28:27;;;;;;;12.73;6.72;;;;;;;;;;9994120;28;20377;-77
2023/12/24 14:33:19;;;;;;;29.90;18.67;;;;;;;;;;9995015;28;20053;-77
2023/12/24 14:38:11;;;;;;;44.47;29.23;;;;;;;;;;9998395;28;20034;-77
2023/12/24 14:43:03;;;;;;;20.42;11.55;;;;;;;;;;10002950;28;20128;-77
2023/12/24 14:47:55;;;;;;;17.70;7.18;;;;;;;;;;10027967;28;20049;-76
2023/12/24 14:52:48;;;;;;;70.68;47.05;;;;;;;;;;10028098;28;20046;-77
2023/12/24 14:57:40;;;;;;;11.00;5.55;;;;;;;;;;10030776;28;20122;-76
2023/12/24 15:02:32;;;;;;;10.20;6.07;;;;;;;;;;10030792;28;20061;-76
2023/12/24 15:07:24;;;;;;;16.05;8.63;;;;;;;;;;10030721;28;20128;-76
2023/12/24 15:12:17;;;;;;;36.88;19.58;;;;;;;;;;10030245;28;20420;-75
2023/12/24 15:17:10;;;;;;;14.43;7.75;;;;;;;;;;10030485;28;20131;-76
2023/12/24 15:22:03;;;;;;;17.90;9.80;;;;;;;;;;10030037;28;20050;-76
2023/12/24 15:26:54;;;;;;;26.35;15.52;;;;;;;;;;10030571;28;20483;-76
2023/12/24 15:31:48;;;;;;;25.83;17.38;;;;;;;;;;10030272;28;20477;-76
2023/12/24 15:36:43;;;;;;;27.10;15.95;;;;;;;;;;10039387;28;20068;-76
2023/12/24 15:41:35;;;;;;;34.38;18.35;;;;;;;;;;10029135;28;20065;-77
2023/12/24 15:46:27;;;;;;;14.35;10.93;;;;;;;;;;10029656;28;20081;-78
2023/12/24 15:51:19;;;;;;;12.90;8.38;;;;;;;;;;10029782;28;20042;-76
2023/12/24 15:56:20;;;;;;;13.43;9.25;;;;;;;;;;10027889;28;20385;-77
2023/12/24 16:01:13;;;;;;;15.48;11.27;;;;;;;;;;10029222;28;20088;-77
2023/12/24 16:06:05;;;;;;;16.33;8.25;;;;;;;;;;10029592;28;20061;-78
2023/12/24 16:10:57;;;;;;;17.27;8.40;;;;;;;;;;10029124;28;20042;-79
2023/12/24 16:15:49;;;;;;;16.38;11.52;;;;;;;;;;10029134;28;20042;-76
2023/12/24 16:20:41;;;;;;;16.95;13.32;;;;;;;;;;10028155;28;20042;-73
2023/12/24 16:25:34;;;;;;;17.83;9.82;;;;;;;;;;10027987;28;20049;-77
2023/12/24 16:30:25;;;;;;;19.85;10.13;;;;;;;;;;10028088;28;20053;-77
2023/12/24 16:35:17;;;;;;;13.63;8.20;;;;;;;;;;10027603;28;20042;-77
2023/12/24 16:40:09;;;;;;;17.50;9.68;;;;;;;;;;10027718;28;20050;-78
2023/12/24 16:45:02;;;;;;;16.80;9.02;;;;;;;;;;10023106;28;20053;-77
2023/12/24 16:49:54;;;;;;;19.92;11.07;;;;;;;;;;10035884;28;20038;-77
2023/12/24 16:54:46;;;;;;;19.58;9.60;;;;;;;;;;10024408;28;20050;-78
2023/12/24 16:59:38;;;;;;;24.00;15.95;;;;;;;;;;10026563;28;20429;-78
2023/12/24 17:04:30;;;;;;;26.02;15.65;;;;;;;;;;10027481;28;20042;-78
2023/12/24 17:09:21;;;;;;;22.98;14.48;;;;;;;;;;10026437;28;20034;-78
2023/12/24 17:14:13;;;;;;;18.08;13.38;;;;;;;;;;10026820;28;20038;-77
2023/12/24 17:19:05;;;;;;;19.77;15.23;;;;;;;;;;10026255;28;20141;-75
2023/12/24 17:23:57;;;;;;;21.73;16.63;;;;;;;;;;10024848;28;20389;-76
2023/12/24 17:28:52;;;;;;;28.90;18.42;;;;;;;;;;10023963;28;20196;-76
2023/12/24 17:33:45;;;;;;;37.75;24.92;;;;;;;;;;10026465;28;20046;-75
2023/12/24 17:38:38;;;;;;;29.40;22.95;;;;;;;;;;10026041;28;20064;-75
2023/12/24 17:43:30;;;;;;;65.78;46.85;;;;;;;;;;10024395;28;20129;-75
2023/12/24 17:48:21;;;;;;;71.60;58.38;;;;;;;;;;10025445;28;20073;-77
2023/12/24 17:53:14;;;;;;;81.10;61.40;;;;;;;;;;10020870;28;20462;-77
2023/12/24 17:58:06;;;;;;;53.70;41.15;;;;;;;;;;10015606;28;20402;-75
2023/12/24 18:02:58;;;;;;;80.13;54.38;;;;;;;;;;10025722;28;20094;-75
2023/12/24 18:07:50;;;;;;;54.03;41.28;;;;;;;;;;10024874;28;20523;-75
2023/12/24 18:12:42;;;;;;;60.45;47.13;;;;;;;;;;10024080;28;20376;-75
2023/12/24 18:17:35;;;;;;;44.40;28.17;;;;;;;;;;10024570;28;20066;-75
2023/12/24 18:22:29;;;;;;;35.75;24.55;;;;;;;;;;10024415;28;20486;-75
2023/12/24 18:27:20;;;;;;;35.85;19.65;;;;;;;;;;10022118;28;20096;-75
2023/12/24 18:32:12;;;;;;;23.05;14.07;;;;;;;;;;10025497;28;20088;-75
2023/12/24 18:37:04;;;;;;;17.50;10.30;;;;;;;;;;10024137;28;20046;-75
2023/12/24 18:41:56;;;;;;;15.50;9.25;;;;;;;;;;10023353;28;20064;-75
2023/12/24 18:46:48;;;;;;;13.63;8.40;;;;;;;;;;10010429;28;20162;-75
2023/12/24 18:51:40;;;;;;;18.05;7.72;;;;;;;;;;10005467;28;20042;-75
2023/12/24 18:56:32;;;;;;;30.33;9.77;;;;;;;;;;10023692;28;20050;-74
2023/12/24 19:01:24;;;;;;;13.70;6.47;;;;;;;;;;10023215;28;20132;-74
2023/12/24 19:06:25;;;;;;;11.98;6.40;;;;;;;;;;10023327;28;20517;-74
2023/12/24 19:11:17;;;;;;;15.43;6.75;;;;;;;;;;10021460;28;20062;-74
2023/12/24 19:16:10;;;;;;;10.45;5.80;;;;;;;;;;10023146;28;20450;-74
2023/12/24 19:21:02;;;;;;;13.77;8.18;;;;;;;;;;10014008;28;20140;-74
2023/12/24 19:25:54;;;;;;;13.35;6.20;;;;;;;;;;10030249;28;20050;-74
2023/12/24 19:30:46;;;;;;;15.18;7.13;;;;;;;;;;10029763;28;20046;-74
2023/12/24 19:35:38;;;;;;;13.20;5.45;;;;;;;;;;10029190;28;20061;-75
2023/12/24 19:40:30;;;;;;;10.55;4.55;;;;;;;;;;10029129;28;20430;-74
2023/12/24 19:45:22;;;;;;;12.90;5.57;;;;;;;;;;10028387;28;20469;-75
2023/12/24 19:50:14;;;;;;;12.05;5.63;;;;;;;;;;10029632;28;20041;-75
2023/12/24 19:55:07;;;;;;;14.15;5.95;;;;;;;;;;10029159;28;20044;-75
2023/12/24 19:59:59;;;;;;;15.23;5.38;;;;;;;;;;10028422;28;20377;-75
2023/12/24 20:04:51;;;;;;;15.63;4.70;;;;;;;;;;10028561;28;20397;-74
2023/12/24 20:09:43;;;;;;;10.57;5.43;;;;;;;;;;10027298;28;20050;-74
2023/12/24 20:14:35;;;;;;;8.15;4.53;;;;;;;;;;10026848;28;20483;-74
2023/12/24 20:19:27;;;;;;;8.70;5.40;;;;;;;;;;10028330;28;20493;-74
2023/12/24 20:24:19;;;;;;;10.40;4.93;;;;;;;;;;10028376;28;20049;-74
2023/12/24 20:29:12;;;;;;;14.80;7.65;;;;;;;;;;10027815;28;20104;-74
2023/12/24 20:34:05;;;;;;;20.25;8.15;;;;;;;;;;10027284;28;20042;-74
2023/12/24 20:38:58;;;;;;;17.73;10.75;;;;;;;;;;10027426;28;20053;-74
2023/12/24 20:43:50;;;;;;;10.82;6.45;;;;;;;;;;10028101;28;20042;-75
2023/12/24 20:48:41;;;;;;;10.18;4.75;;;;;;;;;;10027329;28;20053;-74
2023/12/24 20:53:33;;;;;;;15.35;7.60;;;;;;;;;;10025010;28;20042;-75
2023/12/24 20:58:25;;;;;;;17.92;6.90;;;;;;;;;;10026659;28;20133;-74
2023/12/24 21:03:17;;;;;;;22.30;8.15;;;;;;;;;;10025441;28;20442;-74
2023/12/24 21:08:09;;;;;;;12.35;7.50;;;;;;;;;;10024901;28;20357;-74
2023/12/24 21:13:01;;;;;;;14.55;7.40;;;;;;;;;;10030394;28;20045;-75
2023/12/24 21:17:53;;;;;;;16.25;5.55;;;;;;;;;;10026008;28;20061;-74
2023/12/24 21:22:45;;;;;;;11.20;5.50;;;;;;;;;;10024756;28;20068;-74
2023/12/24 21:27:37;;;;;;;8.15;4.30;;;;;;;;;;10024653;28;20421;-74
2023/12/24 21:32:29;;;;;;;13.20;3.70;;;;;;;;;;10019722;28;20053;-74
2023/12/24 21:37:21;;;;;;;11.93;6.35;;;;;;;;;;10024743;28;20054;-74
2023/12/24 21:42:14;;;;;;;7.25;4.45;;;;;;;;;;10023499;28;20061;-74
2023/12/24 21:47:08;;;;;;;12.05;4.70;;;;;;;;;;10024699;28;20045;-75
2023/12/24 21:52:00;;;;;;;10.00;5.28;;;;;;;;;;10023968;28;20096;-74
2023/12/24 21:56:51;;;;;;;13.38;9.10;;;;;;;;;;10024759;28;20042;-74
2023/12/24 22:01:44;;;;;;;9.05;4.20;;;;;;;;;;10022855;28;20053;-74
2023/12/24 22:06:36;;;;;;;12.00;4.88;;;;;;;;;;10023194;28;20033;-74
2023/12/24 22:11:28;;;;;;;22.38;6.13;;;;;;;;;;10031400;28;20046;-74
2023/12/24 22:16:20;;;;;;;8.40;4.57;;;;;;;;;;10024177;28;20042;-74
2023/12/24 22:21:12;;;;;;;9.68;5.10;;;;;;;;;;10023037;28;20137;-74
2023/12/24 22:26:05;;;;;;;8.50;3.47;;;;;;;;;;10023487;28;20065;-74
2023/12/24 22:30:57;;;;;;;8.10;4.03;;;;;;;;;;10023813;28;20052;-74
2023/12/24 22:35:49;;;;;;;12.93;5.10;;;;;;;;;;10022332;28;20108;-73
2023/12/24 22:40:41;;;;;;;12.05;3.75;;;;;;;;;;10029421;28;20042;-74
2023/12/24 22:45:33;;;;;;;10.82;4.82;;;;;;;;;;10026849;28;20046;-74
2023/12/24 22:50:27;;;;;;;7.63;3.70;;;;;;;;;;10030975;28;20037;-74
2023/12/24 22:55:19;;;;;;;6.97;3.35;;;;;;;;;;10031144;28;20122;-73
2023/12/24 23:00:13;;;;;;;7.88;3.65;;;;;;;;;;10038853;28;20475;-74
2023/12/24 23:05:05;;;;;;;5.55;3.97;;;;;;;;;;10031259;28;20038;-74
2023/12/24 23:09:57;;;;;;;7.03;4.20;;;;;;;;;;10031059;28;20481;-74
2023/12/24 23:14:49;;;;;;;10.93;5.57;;;;;;;;;;10030092;28;20469;-73
2023/12/24 23:19:41;;;;;;;8.98;3.60;;;;;;;;;;10031155;28;20080;-73
2023/12/24 23:24:34;;;;;;;12.52;7.97;;;;;;;;;;10029744;28;20064;-73
2023/12/24 23:29:25;;;;;;;19.27;8.23;;;;;;;;;;10029815;28;20042;-74
2023/12/24 23:34:17;;;;;;;21.45;11.68;;;;;;;;;;10030395;28;20052;-74
2023/12/24 23:39:10;;;;;;;14.30;6.45;;;;;;;;;;10029097;28;20074;-74
2023/12/24 23:44:01;;;;;;;32.83;17.77;;;;;;;;;;10029154;28;20469;-74
2023/12/24 23:48:53;;;;;;;13.32;5.35;;;;;;;;;;10030038;28;20537;-74
2023/12/24 23:53:45;;;;;;;14.38;6.25;;;;;;;;;;10029425;28;20054;-74
2023/12/24 23:58:42;;;;;;;11.77;6.55;;;;;;;;;;10028656;28;20050;-74
